sensor_id;sensor_type;location;lat;lon;timestamp;P1;durP1;ratioP1;P2;durP2;ratioP2
33824;SDS011;20127;48.962;8.342;2022-09-13T00:01:35;4.68;;;2.78;;
33824;SDS011;20127;48.962;8.342;2022-09-13T00:04:37;4.32;;;2.83;;
33824;SDS011;20127;48.962;8.342;2022-09-13T00:07:39;6.43;;;3.30;;
33824;SDS011;20127;48.962;8.342;2022-09-13T00:10:42;5.07;;;2.60;;
33824;SDS011;20127;48.962;8.342;2022-09-13T00:13:45;4.63;;;2.70;;
33824;SDS011;20127;48.962;8.342;2022-09-13T00:16:46;5.45;;;2.63;;
33824;SDS011;20127;48.962;8.342;2022-09-13T00:19:48;4.30;;;2.92;;
33824;SDS011;20127;48.962;8.342;2022-09-13T00:22:50;3.78;;;2.63;;
33824;SDS011;20127;48.962;8.342;2022-09-13T00:25:53;4.45;;;2.70;;
33824;SDS011;20127;48.962;8.342;2022-09-13T00:29:03;3.85;;;2.22;;
33824;SDS011;20127;48.962;8.342;2022-09-13T00:32:05;6.10;;;2.45;;
33824;SDS011;20127;48.962;8.342;2022-09-13T00:35:07;5.45;;;2.78;;
33824;SDS011;20127;48.962;8.342;2022-09-13T00:38:09;7.63;;;3.00;;
33824;SDS011;20127;48.962;8.342;2022-09-13T00:41:13;9.20;;;2.80;;
33824;SDS011;20127;48.962;8.342;2022-09-13T00:47:58;3.95;;;2.72;;
33824;SDS011;20127;48.962;8.342;2022-09-13T00:51:04;4.65;;;3.20;;
33824;SDS011;20127;48.962;8.342;2022-09-13T00:54:08;7.80;;;2.38;;
33824;SDS011;20127;48.962;8.342;2022-09-13T00:57:12;5.45;;;2.50;;
33824;SDS011;20127;48.962;8.342;2022-09-13T01:00:15;7.07;;;3.15;;
33824;SDS011;20127;48.962;8.342;2022-09-13T01:03:19;12.93;;;2.97;;
33824;SDS011;20127;48.962;8.342;2022-09-13T01:06:25;7.28;;;2.97;;
33824;SDS011;20127;48.962;8.342;2022-09-13T01:09:29;3.65;;;2.30;;
33824;SDS011;20127;48.962;8.342;2022-09-13T01:12:38;13.70;;;3.70;;
33824;SDS011;20127;48.962;8.342;2022-09-13T01:15:45;7.20;;;3.28;;
33824;SDS011;20127;48.962;8.342;2022-09-13T01:18:47;4.43;;;2.50;;
33824;SDS011;20127;48.962;8.342;2022-09-13T01:22:06;7.45;;;2.80;;
33824;SDS011;20127;48.962;8.342;2022-09-13T01:25:34;12.88;;;4.60;;
33824;SDS011;20127;48.962;8.342;2022-09-13T01:29:19;4.95;;;2.17;;
33824;SDS011;20127;48.962;8.342;2022-09-13T01:32:38;7.50;;;2.78;;
33824;SDS011;20127;48.962;8.342;2022-09-13T01:36:05;9.10;;;2.95;;
33824;SDS011;20127;48.962;8.342;2022-09-13T01:39:36;5.05;;;2.58;;
33824;SDS011;20127;48.962;8.342;2022-09-13T01:42:59;11.15;;;2.40;;
33824;SDS011;20127;48.962;8.342;2022-09-13T01:46:10;6.80;;;2.38;;
33824;SDS011;20127;48.962;8.342;2022-09-13T01:49:19;3.95;;;2.75;;
33824;SDS011;20127;48.962;8.342;2022-09-13T01:52:28;7.50;;;3.00;;
33824;SDS011;20127;48.962;8.342;2022-09-13T01:55:38;5.78;;;2.65;;
33824;SDS011;20127;48.962;8.342;2022-09-13T01:58:43;3.83;;;2.88;;
33824;SDS011;20127;48.962;8.342;2022-09-13T02:01:50;4.13;;;2.75;;
33824;SDS011;20127;48.962;8.342;2022-09-13T02:08:03;11.20;;;2.72;;
33824;SDS011;20127;48.962;8.342;2022-09-13T02:11:09;12.13;;;2.90;;
33824;SDS011;20127;48.962;8.342;2022-09-13T02:14:13;4.07;;;2.63;;
33824;SDS011;20127;48.962;8.342;2022-09-13T02:17:18;9.02;;;3.10;;
33824;SDS011;20127;48.962;8.342;2022-09-13T02:20:25;3.58;;;2.60;;
33824;SDS011;20127;48.962;8.342;2022-09-13T02:23:31;4.43;;;2.90;;
33824;SDS011;20127;48.962;8.342;2022-09-13T02:26:37;4.57;;;2.77;;
33824;SDS011;20127;48.962;8.342;2022-09-13T02:29:43;9.40;;;3.10;;
33824;SDS011;20127;48.962;8.342;2022-09-13T02:32:47;4.57;;;2.60;;
33824;SDS011;20127;48.962;8.342;2022-09-13T02:35:57;7.68;;;3.13;;
33824;SDS011;20127;48.962;8.342;2022-09-13T02:39:03;6.37;;;3.10;;
33824;SDS011;20127;48.962;8.342;2022-09-13T02:42:09;6.55;;;2.80;;
33824;SDS011;20127;48.962;8.342;2022-09-13T02:45:17;8.65;;;2.72;;
33824;SDS011;20127;48.962;8.342;2022-09-13T02:48:24;4.75;;;2.72;;
33824;SDS011;20127;48.962;8.342;2022-09-13T02:51:37;3.80;;;2.47;;
33824;SDS011;20127;48.962;8.342;2022-09-13T02:54:46;4.20;;;3.00;;
33824;SDS011;20127;48.962;8.342;2022-09-13T02:57:55;3.78;;;2.72;;
33824;SDS011;20127;48.962;8.342;2022-09-13T03:01:02;6.60;;;2.90;;
33824;SDS011;20127;48.962;8.342;2022-09-13T03:04:04;3.97;;;2.10;;
33824;SDS011;20127;48.962;8.342;2022-09-13T03:07:10;9.48;;;3.28;;
33824;SDS011;20127;48.962;8.342;2022-09-13T03:10:12;3.35;;;2.40;;
33824;SDS011;20127;48.962;8.342;2022-09-13T03:13:23;4.88;;;3.45;;
33824;SDS011;20127;48.962;8.342;2022-09-13T03:16:37;8.55;;;3.10;;
33824;SDS011;20127;48.962;8.342;2022-09-13T03:19:52;7.13;;;2.80;;
33824;SDS011;20127;48.962;8.342;2022-09-13T03:23:16;3.42;;;2.45;;
33824;SDS011;20127;48.962;8.342;2022-09-13T03:26:31;10.40;;;3.25;;
33824;SDS011;20127;48.962;8.342;2022-09-13T03:29:43;9.48;;;2.60;;
33824;SDS011;20127;48.962;8.342;2022-09-13T03:32:51;6.47;;;2.65;;
33824;SDS011;20127;48.962;8.342;2022-09-13T03:36:01;8.07;;;2.95;;
33824;SDS011;20127;48.962;8.342;2022-09-13T03:39:14;5.18;;;3.13;;
33824;SDS011;20127;48.962;8.342;2022-09-13T03:42:23;5.03;;;3.08;;
33824;SDS011;20127;48.962;8.342;2022-09-13T03:45:32;5.93;;;2.47;;
33824;SDS011;20127;48.962;8.342;2022-09-13T03:48:39;4.60;;;3.00;;
33824;SDS011;20127;48.962;8.342;2022-09-13T03:51:42;5.15;;;2.42;;
33824;SDS011;20127;48.962;8.342;2022-09-13T03:54:48;4.75;;;2.35;;
33824;SDS011;20127;48.962;8.342;2022-09-13T03:57:50;4.15;;;2.42;;
33824;SDS011;20127;48.962;8.342;2022-09-13T04:00:51;4.78;;;2.88;;
33824;SDS011;20127;48.962;8.342;2022-09-13T04:03:53;6.03;;;2.85;;
33824;SDS011;20127;48.962;8.342;2022-09-13T04:06:55;4.47;;;2.80;;
33824;SDS011;20127;48.962;8.342;2022-09-13T04:09:58;8.70;;;2.92;;
33824;SDS011;20127;48.962;8.342;2022-09-13T04:13:00;6.47;;;2.95;;
33824;SDS011;20127;48.962;8.342;2022-09-13T04:16:03;7.63;;;2.75;;
33824;SDS011;20127;48.962;8.342;2022-09-13T04:19:06;5.43;;;2.28;;
33824;SDS011;20127;48.962;8.342;2022-09-13T04:22:07;3.75;;;2.67;;
33824;SDS011;20127;48.962;8.342;2022-09-13T04:25:10;4.80;;;2.83;;
33824;SDS011;20127;48.962;8.342;2022-09-13T04:28:12;8.93;;;2.47;;
33824;SDS011;20127;48.962;8.342;2022-09-13T04:31:14;7.38;;;2.42;;
33824;SDS011;20127;48.962;8.342;2022-09-13T04:34:16;18.38;;;4.65;;
33824;SDS011;20127;48.962;8.342;2022-09-13T04:41:17;8.32;;;2.70;;
33824;SDS011;20127;48.962;8.342;2022-09-13T04:44:18;8.38;;;2.72;;
33824;SDS011;20127;48.962;8.342;2022-09-13T04:47:21;6.63;;;2.80;;
33824;SDS011;20127;48.962;8.342;2022-09-13T04:50:23;4.50;;;3.10;;
33824;SDS011;20127;48.962;8.342;2022-09-13T04:53:25;4.00;;;2.13;;
33824;SDS011;20127;48.962;8.342;2022-09-13T04:56:28;4.43;;;2.92;;
33824;SDS011;20127;48.962;8.342;2022-09-13T04:59:30;7.38;;;2.60;;
33824;SDS011;20127;48.962;8.342;2022-09-13T05:02:32;6.18;;;2.92;;
33824;SDS011;20127;48.962;8.342;2022-09-13T05:05:33;6.55;;;3.03;;
33824;SDS011;20127;48.962;8.342;2022-09-13T05:08:35;6.50;;;2.80;;
33824;SDS011;20127;48.962;8.342;2022-09-13T05:11:39;6.30;;;2.75;;
33824;SDS011;20127;48.962;8.342;2022-09-13T05:14:41;4.47;;;2.47;;
33824;SDS011;20127;48.962;8.342;2022-09-13T05:17:42;4.97;;;2.75;;
33824;SDS011;20127;48.962;8.342;2022-09-13T05:20:44;5.95;;;2.80;;
33824;SDS011;20127;48.962;8.342;2022-09-13T05:23:47;4.22;;;2.88;;
33824;SDS011;20127;48.962;8.342;2022-09-13T05:26:50;4.70;;;2.70;;
33824;SDS011;20127;48.962;8.342;2022-09-13T05:29:52;14.57;;;3.95;;
33824;SDS011;20127;48.962;8.342;2022-09-13T05:32:54;6.22;;;2.75;;
33824;SDS011;20127;48.962;8.342;2022-09-13T05:35:57;18.48;;;6.32;;
33824;SDS011;20127;48.962;8.342;2022-09-13T05:38:58;10.40;;;3.03;;
33824;SDS011;20127;48.962;8.342;2022-09-13T05:42:02;6.20;;;3.28;;
33824;SDS011;20127;48.962;8.342;2022-09-13T05:45:04;6.43;;;2.78;;
33824;SDS011;20127;48.962;8.342;2022-09-13T05:48:06;7.22;;;3.30;;
33824;SDS011;20127;48.962;8.342;2022-09-13T05:51:09;11.18;;;2.65;;
33824;SDS011;20127;48.962;8.342;2022-09-13T05:54:12;5.60;;;2.88;;
33824;SDS011;20127;48.962;8.342;2022-09-13T05:57:15;6.07;;;2.80;;
33824;SDS011;20127;48.962;8.342;2022-09-13T06:00:17;5.47;;;2.17;;
33824;SDS011;20127;48.962;8.342;2022-09-13T06:03:18;7.00;;;2.70;;
33824;SDS011;20127;48.962;8.342;2022-09-13T06:06:20;8.13;;;2.30;;
33824;SDS011;20127;48.962;8.342;2022-09-13T06:09:23;14.30;;;3.15;;
33824;SDS011;20127;48.962;8.342;2022-09-13T06:12:26;8.63;;;2.80;;
33824;SDS011;20127;48.962;8.342;2022-09-13T06:15:28;7.45;;;2.28;;
33824;SDS011;20127;48.962;8.342;2022-09-13T06:18:30;4.90;;;2.58;;
33824;SDS011;20127;48.962;8.342;2022-09-13T06:21:32;4.13;;;2.47;;
33824;SDS011;20127;48.962;8.342;2022-09-13T06:24:34;3.80;;;2.03;;
33824;SDS011;20127;48.962;8.342;2022-09-13T06:27:38;10.90;;;2.30;;
33824;SDS011;20127;48.962;8.342;2022-09-13T06:30:40;2.65;;;1.95;;
33824;SDS011;20127;48.962;8.342;2022-09-13T06:33:42;3.47;;;2.20;;
33824;SDS011;20127;48.962;8.342;2022-09-13T06:36:45;3.35;;;1.90;;
33824;SDS011;20127;48.962;8.342;2022-09-13T06:39:46;6.88;;;2.28;;
33824;SDS011;20127;48.962;8.342;2022-09-13T06:42:49;6.82;;;2.03;;
33824;SDS011;20127;48.962;8.342;2022-09-13T06:45:51;4.10;;;2.30;;
33824;SDS011;20127;48.962;8.342;2022-09-13T06:48:53;5.22;;;2.03;;
33824;SDS011;20127;48.962;8.342;2022-09-13T06:51:56;3.03;;;1.52;;
33824;SDS011;20127;48.962;8.342;2022-09-13T06:54:58;5.57;;;1.80;;
33824;SDS011;20127;48.962;8.342;2022-09-13T06:58:01;2.85;;;1.70;;
33824;SDS011;20127;48.962;8.342;2022-09-13T07:01:07;5.35;;;1.92;;
33824;SDS011;20127;48.962;8.342;2022-09-13T07:04:12;2.92;;;1.85;;
33824;SDS011;20127;48.962;8.342;2022-09-13T07:07:15;3.08;;;1.42;;
33824;SDS011;20127;48.962;8.342;2022-09-13T07:10:17;2.40;;;1.42;;
33824;SDS011;20127;48.962;8.342;2022-09-13T07:13:20;5.63;;;1.95;;
33824;SDS011;20127;48.962;8.342;2022-09-13T07:16:22;6.72;;;1.40;;
33824;SDS011;20127;48.962;8.342;2022-09-13T07:19:27;7.15;;;1.20;;
33824;SDS011;20127;48.962;8.342;2022-09-13T07:22:30;2.53;;;1.60;;
33824;SDS011;20127;48.962;8.342;2022-09-13T07:25:32;3.55;;;1.52;;
33824;SDS011;20127;48.962;8.342;2022-09-13T07:28:35;2.45;;;1.40;;
33824;SDS011;20127;48.962;8.342;2022-09-13T07:31:39;6.40;;;1.98;;
33824;SDS011;20127;48.962;8.342;2022-09-13T07:34:41;6.68;;;1.33;;
33824;SDS011;20127;48.962;8.342;2022-09-13T07:37:44;2.83;;;1.08;;
33824;SDS011;20127;48.962;8.342;2022-09-13T07:40:51;3.63;;;1.10;;
33824;SDS011;20127;48.962;8.342;2022-09-13T07:43:55;2.47;;;1.40;;
33824;SDS011;20127;48.962;8.342;2022-09-13T07:46:57;6.43;;;1.45;;
33824;SDS011;20127;48.962;8.342;2022-09-13T07:49:59;4.20;;;1.13;;
33824;SDS011;20127;48.962;8.342;2022-09-13T07:53:01;4.63;;;1.35;;
33824;SDS011;20127;48.962;8.342;2022-09-13T07:56:03;3.10;;;1.50;;
33824;SDS011;20127;48.962;8.342;2022-09-13T07:59:10;6.32;;;1.38;;
33824;SDS011;20127;48.962;8.342;2022-09-13T08:02:13;3.70;;;1.65;;
33824;SDS011;20127;48.962;8.342;2022-09-13T08:05:17;3.60;;;1.73;;
33824;SDS011;20127;48.962;8.342;2022-09-13T08:08:19;9.70;;;1.92;;
33824;SDS011;20127;48.962;8.342;2022-09-13T08:11:21;3.92;;;1.42;;
33824;SDS011;20127;48.962;8.342;2022-09-13T08:14:26;4.28;;;1.10;;
33824;SDS011;20127;48.962;8.342;2022-09-13T08:17:28;2.75;;;1.33;;
33824;SDS011;20127;48.962;8.342;2022-09-13T08:20:29;2.88;;;1.35;;
33824;SDS011;20127;48.962;8.342;2022-09-13T08:23:31;6.60;;;1.55;;
33824;SDS011;20127;48.962;8.342;2022-09-13T08:26:33;5.60;;;1.42;;
33824;SDS011;20127;48.962;8.342;2022-09-13T08:29:37;3.22;;;1.23;;
33824;SDS011;20127;48.962;8.342;2022-09-13T08:32:39;5.82;;;1.10;;
33824;SDS011;20127;48.962;8.342;2022-09-13T08:35:48;13.82;;;1.70;;
33824;SDS011;20127;48.962;8.342;2022-09-13T08:38:50;5.55;;;1.88;;
33824;SDS011;20127;48.962;8.342;2022-09-13T08:41:58;1.33;;;0.90;;
33824;SDS011;20127;48.962;8.342;2022-09-13T08:45:07;4.05;;;1.20;;
33824;SDS011;20127;48.962;8.342;2022-09-13T08:48:10;24.73;;;1.88;;
33824;SDS011;20127;48.962;8.342;2022-09-13T08:51:21;3.35;;;1.27;;
33824;SDS011;20127;48.962;8.342;2022-09-13T08:54:28;2.50;;;1.20;;
33824;SDS011;20127;48.962;8.342;2022-09-13T08:57:31;4.32;;;1.38;;
33824;SDS011;20127;48.962;8.342;2022-09-13T09:00:41;4.28;;;1.30;;
33824;SDS011;20127;48.962;8.342;2022-09-13T09:03:48;5.13;;;1.80;;
33824;SDS011;20127;48.962;8.342;2022-09-13T09:06:59;3.58;;;1.45;;
33824;SDS011;20127;48.962;8.342;2022-09-13T09:10:06;4.47;;;1.25;;
33824;SDS011;20127;48.962;8.342;2022-09-13T09:13:15;4.65;;;1.08;;
33824;SDS011;20127;48.962;8.342;2022-09-13T09:16:29;1.80;;;0.98;;
33824;SDS011;20127;48.962;8.342;2022-09-13T09:19:38;2.25;;;1.15;;
33824;SDS011;20127;48.962;8.342;2022-09-13T09:22:42;6.50;;;1.20;;
33824;SDS011;20127;48.962;8.342;2022-09-13T09:25:45;3.28;;;1.20;;
33824;SDS011;20127;48.962;8.342;2022-09-13T09:28:48;8.10;;;2.00;;
33824;SDS011;20127;48.962;8.342;2022-09-13T09:31:59;4.88;;;1.23;;
33824;SDS011;20127;48.962;8.342;2022-09-13T09:35:11;5.90;;;1.30;;
33824;SDS011;20127;48.962;8.342;2022-09-13T09:38:23;5.20;;;1.23;;
33824;SDS011;20127;48.962;8.342;2022-09-13T09:41:38;6.28;;;1.40;;
33824;SDS011;20127;48.962;8.342;2022-09-13T09:44:40;5.47;;;1.25;;
33824;SDS011;20127;48.962;8.342;2022-09-13T09:47:49;2.53;;;1.00;;
33824;SDS011;20127;48.962;8.342;2022-09-13T09:50:52;5.75;;;1.35;;
33824;SDS011;20127;48.962;8.342;2022-09-13T09:53:58;3.45;;;1.10;;
33824;SDS011;20127;48.962;8.342;2022-09-13T09:57:04;4.70;;;1.10;;
33824;SDS011;20127;48.962;8.342;2022-09-13T10:00:09;4.95;;;1.00;;
33824;SDS011;20127;48.962;8.342;2022-09-13T10:03:15;2.25;;;1.15;;
33824;SDS011;20127;48.962;8.342;2022-09-13T10:06:20;1.70;;;0.75;;
33824;SDS011;20127;48.962;8.342;2022-09-13T10:09:24;7.22;;;1.30;;
33824;SDS011;20127;48.962;8.342;2022-09-13T10:12:26;6.47;;;1.02;;
33824;SDS011;20127;48.962;8.342;2022-09-13T10:15:32;4.85;;;1.30;;
33824;SDS011;20127;48.962;8.342;2022-09-13T10:18:36;4.15;;;0.77;;
33824;SDS011;20127;48.962;8.342;2022-09-13T10:21:38;7.53;;;1.13;;
33824;SDS011;20127;48.962;8.342;2022-09-13T10:24:39;3.70;;;0.60;;
33824;SDS011;20127;48.962;8.342;2022-09-13T10:27:41;3.58;;;0.65;;
33824;SDS011;20127;48.962;8.342;2022-09-13T10:30:51;2.47;;;0.60;;
33824;SDS011;20127;48.962;8.342;2022-09-13T10:33:57;8.40;;;1.35;;
33824;SDS011;20127;48.962;8.342;2022-09-13T10:37:02;7.93;;;0.77;;
33824;SDS011;20127;48.962;8.342;2022-09-13T10:40:06;3.65;;;0.70;;
33824;SDS011;20127;48.962;8.342;2022-09-13T10:43:17;2.15;;;0.98;;
33824;SDS011;20127;48.962;8.342;2022-09-13T10:46:21;1.33;;;0.52;;
33824;SDS011;20127;48.962;8.342;2022-09-13T10:49:38;4.03;;;0.60;;
33824;SDS011;20127;48.962;8.342;2022-09-13T10:52:46;2.80;;;1.70;;
33824;SDS011;20127;48.962;8.342;2022-09-13T10:55:51;2.92;;;0.98;;
33824;SDS011;20127;48.962;8.342;2022-09-13T10:58:55;2.03;;;0.55;;
33824;SDS011;20127;48.962;8.342;2022-09-13T11:02:23;3.92;;;0.85;;
33824;SDS011;20127;48.962;8.342;2022-09-13T11:05:40;1.13;;;0.65;;
33824;SDS011;20127;48.962;8.342;2022-09-13T11:08:49;15.68;;;2.80;;
33824;SDS011;20127;48.962;8.342;2022-09-13T11:12:00;3.42;;;0.65;;
33824;SDS011;20127;48.962;8.342;2022-09-13T11:15:12;2.10;;;0.73;;
33824;SDS011;20127;48.962;8.342;2022-09-13T11:21:55;4.20;;;0.70;;
33824;SDS011;20127;48.962;8.342;2022-09-13T11:25:13;2.55;;;1.00;;
33824;SDS011;20127;48.962;8.342;2022-09-13T11:28:27;3.58;;;0.60;;
33824;SDS011;20127;48.962;8.342;2022-09-13T11:31:41;1.80;;;0.95;;
33824;SDS011;20127;48.962;8.342;2022-09-13T11:34:49;2.03;;;0.68;;
33824;SDS011;20127;48.962;8.342;2022-09-13T11:38:07;2.15;;;0.60;;
33824;SDS011;20127;48.962;8.342;2022-09-13T11:41:23;4.15;;;1.00;;
33824;SDS011;20127;48.962;8.342;2022-09-13T11:44:58;1.58;;;0.80;;
33824;SDS011;20127;48.962;8.342;2022-09-13T11:51:52;1.88;;;0.50;;
33824;SDS011;20127;48.962;8.342;2022-09-13T11:55:10;2.40;;;0.60;;
33824;SDS011;20127;48.962;8.342;2022-09-13T11:58:17;2.15;;;1.10;;
33824;SDS011;20127;48.962;8.342;2022-09-13T12:01:24;7.45;;;1.42;;
33824;SDS011;20127;48.962;8.342;2022-09-13T12:04:32;3.50;;;0.60;;
33824;SDS011;20127;48.962;8.342;2022-09-13T12:07:41;4.65;;;1.02;;
33824;SDS011;20127;48.962;8.342;2022-09-13T12:10:49;4.15;;;0.55;;
33824;SDS011;20127;48.962;8.342;2022-09-13T12:13:54;6.10;;;0.80;;
33824;SDS011;20127;48.962;8.342;2022-09-13T12:16:58;2.65;;;0.90;;
33824;SDS011;20127;48.962;8.342;2022-09-13T12:20:05;2.70;;;0.70;;
33824;SDS011;20127;48.962;8.342;2022-09-13T12:23:17;5.60;;;0.73;;
33824;SDS011;20127;48.962;8.342;2022-09-13T12:26:25;1.58;;;0.60;;
33824;SDS011;20127;48.962;8.342;2022-09-13T12:29:33;3.45;;;0.32;;
33824;SDS011;20127;48.962;8.342;2022-09-13T12:32:38;4.32;;;0.80;;
33824;SDS011;20127;48.962;8.342;2022-09-13T12:35:43;1.13;;;0.57;;
33824;SDS011;20127;48.962;8.342;2022-09-13T12:39:00;1.45;;;0.52;;
33824;SDS011;20127;48.962;8.342;2022-09-13T12:49:32;2.83;;;0.40;;
33824;SDS011;20127;48.962;8.342;2022-09-13T12:52:52;4.72;;;0.73;;
33824;SDS011;20127;48.962;8.342;2022-09-13T12:56:14;2.85;;;0.60;;
33824;SDS011;20127;48.962;8.342;2022-09-13T12:59:50;7.00;;;0.50;;
33824;SDS011;20127;48.962;8.342;2022-09-13T13:03:14;6.50;;;0.35;;
33824;SDS011;20127;48.962;8.342;2022-09-13T13:06:24;1.45;;;0.30;;
33824;SDS011;20127;48.962;8.342;2022-09-13T13:09:35;5.32;;;0.50;;
33824;SDS011;20127;48.962;8.342;2022-09-13T13:12:41;3.13;;;0.20;;
33824;SDS011;20127;48.962;8.342;2022-09-13T13:15:56;1.30;;;0.30;;
33824;SDS011;20127;48.962;8.342;2022-09-13T13:19:03;1.27;;;0.63;;
33824;SDS011;20127;48.962;8.342;2022-09-13T13:25:56;0.85;;;0.30;;
33824;SDS011;20127;48.962;8.342;2022-09-13T13:29:09;0.85;;;0.40;;
33824;SDS011;20127;48.962;8.342;2022-09-13T13:32:14;1.92;;;0.28;;
33824;SDS011;20127;48.962;8.342;2022-09-13T13:35:27;1.13;;;0.30;;
33824;SDS011;20127;48.962;8.342;2022-09-13T13:38:41;1.92;;;0.60;;
33824;SDS011;20127;48.962;8.342;2022-09-13T13:41:50;2.80;;;0.50;;
33824;SDS011;20127;48.962;8.342;2022-09-13T13:48:32;1.35;;;0.35;;
33824;SDS011;20127;48.962;8.342;2022-09-13T13:51:36;3.40;;;0.40;;
33824;SDS011;20127;48.962;8.342;2022-09-13T13:57:59;5.07;;;0.40;;
33824;SDS011;20127;48.962;8.342;2022-09-13T14:01:03;0.85;;;0.30;;
33824;SDS011;20127;48.962;8.342;2022-09-13T14:04:29;1.10;;;0.40;;
33824;SDS011;20127;48.962;8.342;2022-09-13T14:07:49;5.22;;;1.08;;
33824;SDS011;20127;48.962;8.342;2022-09-13T14:11:31;0.70;;;0.40;;
33824;SDS011;20127;48.962;8.342;2022-09-13T14:14:44;5.43;;;1.02;;
33824;SDS011;20127;48.962;8.342;2022-09-13T14:18:05;3.08;;;0.32;;
33824;SDS011;20127;48.962;8.342;2022-09-13T14:21:30;1.60;;;0.30;;
33824;SDS011;20127;48.962;8.342;2022-09-13T14:24:36;3.15;;;0.45;;
33824;SDS011;20127;48.962;8.342;2022-09-13T14:27:41;3.13;;;0.57;;
33824;SDS011;20127;48.962;8.342;2022-09-13T14:30:44;1.50;;;0.50;;
33824;SDS011;20127;48.962;8.342;2022-09-13T14:33:46;1.13;;;0.50;;
33824;SDS011;20127;48.962;8.342;2022-09-13T14:36:54;4.50;;;0.45;;
33824;SDS011;20127;48.962;8.342;2022-09-13T14:39:58;3.72;;;0.35;;
33824;SDS011;20127;48.962;8.342;2022-09-13T14:43:01;1.80;;;0.57;;
33824;SDS011;20127;48.962;8.342;2022-09-13T14:46:16;0.73;;;0.50;;
33824;SDS011;20127;48.962;8.342;2022-09-13T14:49:23;1.63;;;0.43;;
33824;SDS011;20127;48.962;8.342;2022-09-13T14:52:30;3.42;;;0.65;;
33824;SDS011;20127;48.962;8.342;2022-09-13T14:55:35;3.78;;;0.47;;
33824;SDS011;20127;48.962;8.342;2022-09-13T14:58:41;3.40;;;1.35;;
33824;SDS011;20127;48.962;8.342;2022-09-13T15:01:46;0.82;;;0.40;;
33824;SDS011;20127;48.962;8.342;2022-09-13T15:04:48;4.63;;;0.30;;
33824;SDS011;20127;48.962;8.342;2022-09-13T15:07:53;2.50;;;0.80;;
33824;SDS011;20127;48.962;8.342;2022-09-13T15:10:55;3.88;;;0.80;;
33824;SDS011;20127;48.962;8.342;2022-09-13T15:17:25;1.58;;;0.50;;
33824;SDS011;20127;48.962;8.342;2022-09-13T15:20:27;1.20;;;0.50;;
33824;SDS011;20127;48.962;8.342;2022-09-13T15:23:32;1.60;;;0.70;;
33824;SDS011;20127;48.962;8.342;2022-09-13T15:26:35;1.05;;;0.70;;
33824;SDS011;20127;48.962;8.342;2022-09-13T15:29:37;2.72;;;0.60;;
33824;SDS011;20127;48.962;8.342;2022-09-13T15:32:40;2.72;;;0.50;;
33824;SDS011;20127;48.962;8.342;2022-09-13T15:35:43;2.35;;;0.70;;
33824;SDS011;20127;48.962;8.342;2022-09-13T15:39:01;1.98;;;0.77;;
33824;SDS011;20127;48.962;8.342;2022-09-13T15:42:15;2.85;;;0.60;;
33824;SDS011;20127;48.962;8.342;2022-09-13T15:45:18;3.63;;;0.60;;
33824;SDS011;20127;48.962;8.342;2022-09-13T15:48:21;3.33;;;0.55;;
33824;SDS011;20127;48.962;8.342;2022-09-13T15:51:26;3.53;;;0.75;;
33824;SDS011;20127;48.962;8.342;2022-09-13T15:54:31;1.15;;;0.63;;
33824;SDS011;20127;48.962;8.342;2022-09-13T15:57:35;2.65;;;0.68;;
33824;SDS011;20127;48.962;8.342;2022-09-13T16:00:37;6.88;;;0.65;;
33824;SDS011;20127;48.962;8.342;2022-09-13T16:03:39;2.78;;;0.55;;
33824;SDS011;20127;48.962;8.342;2022-09-13T16:06:41;1.23;;;0.52;;
33824;SDS011;20127;48.962;8.342;2022-09-13T16:09:44;2.13;;;1.00;;
33824;SDS011;20127;48.962;8.342;2022-09-13T16:12:47;3.28;;;0.50;;
33824;SDS011;20127;48.962;8.342;2022-09-13T16:15:48;3.50;;;1.20;;
33824;SDS011;20127;48.962;8.342;2022-09-13T16:18:50;2.08;;;1.45;;
33824;SDS011;20127;48.962;8.342;2022-09-13T16:21:52;2.92;;;1.85;;
33824;SDS011;20127;48.962;8.342;2022-09-13T16:24:55;1.08;;;0.60;;
33824;SDS011;20127;48.962;8.342;2022-09-13T16:27:56;2.38;;;0.52;;
33824;SDS011;20127;48.962;8.342;2022-09-13T16:30:58;18.60;;;1.63;;
33824;SDS011;20127;48.962;8.342;2022-09-13T16:34:00;4.50;;;1.17;;
33824;SDS011;20127;48.962;8.342;2022-09-13T16:37:02;2.45;;;0.63;;
33824;SDS011;20127;48.962;8.342;2022-09-13T16:40:06;3.53;;;0.60;;
33824;SDS011;20127;48.962;8.342;2022-09-13T16:43:09;4.32;;;0.73;;
33824;SDS011;20127;48.962;8.342;2022-09-13T16:46:11;2.15;;;0.90;;
33824;SDS011;20127;48.962;8.342;2022-09-13T16:49:13;1.25;;;0.50;;
33824;SDS011;20127;48.962;8.342;2022-09-13T16:52:15;4.10;;;0.52;;
33824;SDS011;20127;48.962;8.342;2022-09-13T16:55:18;6.53;;;0.95;;
33824;SDS011;20127;48.962;8.342;2022-09-13T16:58:20;1.58;;;1.05;;
33824;SDS011;20127;48.962;8.342;2022-09-13T17:01:22;1.77;;;0.90;;
33824;SDS011;20127;48.962;8.342;2022-09-13T17:04:26;2.50;;;0.68;;
33824;SDS011;20127;48.962;8.342;2022-09-13T17:07:27;5.57;;;0.80;;
33824;SDS011;20127;48.962;8.342;2022-09-13T17:10:30;3.65;;;0.77;;
33824;SDS011;20127;48.962;8.342;2022-09-13T17:13:32;3.13;;;0.80;;
33824;SDS011;20127;48.962;8.342;2022-09-13T17:16:35;2.00;;;0.52;;
33824;SDS011;20127;48.962;8.342;2022-09-13T17:19:38;2.67;;;1.20;;
33824;SDS011;20127;48.962;8.342;2022-09-13T17:22:40;2.78;;;1.85;;
33824;SDS011;20127;48.962;8.342;2022-09-13T17:25:44;1.85;;;1.13;;
33824;SDS011;20127;48.962;8.342;2022-09-13T17:28:47;5.13;;;2.80;;
33824;SDS011;20127;48.962;8.342;2022-09-13T17:31:51;2.80;;;1.23;;
33824;SDS011;20127;48.962;8.342;2022-09-13T17:34:53;2.42;;;1.40;;
33824;SDS011;20127;48.962;8.342;2022-09-13T17:37:54;2.25;;;0.85;;
33824;SDS011;20127;48.962;8.342;2022-09-13T17:41:02;1.75;;;0.75;;
33824;SDS011;20127;48.962;8.342;2022-09-13T17:44:05;2.90;;;0.60;;
33824;SDS011;20127;48.962;8.342;2022-09-13T17:47:07;9.43;;;5.65;;
33824;SDS011;20127;48.962;8.342;2022-09-13T17:50:09;9.88;;;4.28;;
33824;SDS011;20127;48.962;8.342;2022-09-13T17:53:11;7.70;;;2.47;;
33824;SDS011;20127;48.962;8.342;2022-09-13T17:56:16;2.00;;;1.35;;
33824;SDS011;20127;48.962;8.342;2022-09-13T17:59:19;2.30;;;0.80;;
33824;SDS011;20127;48.962;8.342;2022-09-13T18:02:22;1.73;;;0.60;;
33824;SDS011;20127;48.962;8.342;2022-09-13T18:05:24;12.90;;;4.55;;
33824;SDS011;20127;48.962;8.342;2022-09-13T18:08:27;9.93;;;4.43;;
33824;SDS011;20127;48.962;8.342;2022-09-13T18:11:31;4.63;;;1.35;;
33824;SDS011;20127;48.962;8.342;2022-09-13T18:14:33;3.00;;;0.70;;
33824;SDS011;20127;48.962;8.342;2022-09-13T18:17:35;1.35;;;0.60;;
33824;SDS011;20127;48.962;8.342;2022-09-13T18:20:36;8.05;;;1.35;;
33824;SDS011;20127;48.962;8.342;2022-09-13T18:23:38;3.38;;;1.02;;
33824;SDS011;20127;48.962;8.342;2022-09-13T18:26:41;5.15;;;1.52;;
33824;SDS011;20127;48.962;8.342;2022-09-13T18:29:43;1.65;;;0.90;;
33824;SDS011;20127;48.962;8.342;2022-09-13T18:32:45;4.55;;;1.25;;
33824;SDS011;20127;48.962;8.342;2022-09-13T18:35:54;2.78;;;1.10;;
33824;SDS011;20127;48.962;8.342;2022-09-13T18:38:57;1.33;;;0.95;;
33824;SDS011;20127;48.962;8.342;2022-09-13T18:42:04;2.65;;;0.90;;
33824;SDS011;20127;48.962;8.342;2022-09-13T18:45:07;3.95;;;1.58;;
33824;SDS011;20127;48.962;8.342;2022-09-13T18:48:09;5.75;;;1.10;;
33824;SDS011;20127;48.962;8.342;2022-09-13T18:51:11;8.07;;;1.27;;
33824;SDS011;20127;48.962;8.342;2022-09-13T18:54:15;1.77;;;1.00;;
33824;SDS011;20127;48.962;8.342;2022-09-13T18:57:19;7.57;;;1.02;;
33824;SDS011;20127;48.962;8.342;2022-09-13T19:00:22;2.08;;;1.08;;
33824;SDS011;20127;48.962;8.342;2022-09-13T19:03:24;3.08;;;0.80;;
33824;SDS011;20127;48.962;8.342;2022-09-13T19:06:26;3.88;;;1.50;;
33824;SDS011;20127;48.962;8.342;2022-09-13T19:09:29;1.40;;;0.95;;
33824;SDS011;20127;48.962;8.342;2022-09-13T19:12:32;4.65;;;1.02;;
33824;SDS011;20127;48.962;8.342;2022-09-13T19:15:34;5.63;;;1.08;;
33824;SDS011;20127;48.962;8.342;2022-09-13T19:18:36;1.92;;;0.90;;
33824;SDS011;20127;48.962;8.342;2022-09-13T19:21:39;1.92;;;1.00;;